Terminal Aerodrome Forecast
Issued by NWS Sterling, VA

Current Version | Previous Version | Graphics & Text | Print | Product List | Glossary On
Versions: 1 2 3 4 5 6 7 8 9 10 11 12 13 14 15 16 17 18 19 20 21 22 23 24 25 26 27 28 29
046
FTUS41 KLWX 050541
TAFIAD
TAF
KIAD 050541Z 0506/0612 07007KT P6SM -RA OVC010
     FM050700 05007KT P6SM OVC008
     FM051700 02007KT 5SM -SHRA OVC015
     FM051900 02007KT 3SM -SHRA OVC015
     FM060600 01005KT 3SM SHRA BR OVC008=

USA.gov is the U.S. government's official web portal to all federal, state and local government web resources and services.